Time;durP1;ratioP1;P1;durP2;ratioP2;P2;SDS_P1;SDS_P2;PMS_P1;PMS_P2;Temp;Humidity;BMP_temperature;BMP_pressure;BME280_temperature;BME280_humidity;BME280_pressure;Samples;Min_cycle;Max_cycle;Signal;HPM_P1;HPM_P2
2023/03/11 00:01:39;;;;;;;1999.90;999.90;;;13.60;99.90;;;;;;5013825;28;20116;-75
2023/03/11 00:04:06;;;;;;;1999.90;999.90;;;13.60;99.90;;;;;;5013733;28;20096;-75
2023/03/11 00:06:34;;;;;;;1999.90;999.90;;;13.60;99.90;;;;;;5013476;28;20026;-75
2023/03/11 00:09:00;;;;;;;1999.90;999.90;;;13.70;99.90;;;;;;5013553;28;20022;-75
2023/03/11 00:11:26;;;;;;;1999.90;999.90;;;13.70;99.90;;;;;;5013518;28;20108;-78
2023/03/11 00:13:51;;;;;;;1999.90;999.90;;;13.80;99.90;;;;;;5013309;28;20431;-78
2023/03/11 00:16:17;;;;;;;1999.90;999.90;;;13.80;99.90;;;;;;5008037;28;20489;-78
2023/03/11 00:18:42;;;;;;;1999.90;999.90;;;13.80;99.90;;;;;;5013368;28;20108;-73
2023/03/11 00:21:16;;;;;;;1999.90;999.90;;;13.80;99.90;;;;;;5013434;28;20057;-73
2023/03/11 00:23:41;;;;;;;1999.90;999.90;;;13.80;99.90;;;;;;5013232;28;20022;-77
2023/03/11 00:26:07;;;;;;;1999.90;999.90;;;13.80;99.90;;;;;;5013438;28;20401;-77
2023/03/11 00:28:33;;;;;;;1999.90;999.90;;;13.90;99.90;;;;;;5013337;28;20026;-76
2023/03/11 00:30:58;;;;;;;1999.90;999.90;;;13.80;99.90;;;;;;5013107;28;20034;-78
2023/03/11 00:33:24;;;;;;;1999.90;999.90;;;13.80;99.90;;;;;;5013246;28;20030;-73
2023/03/11 00:35:50;;;;;;;1999.90;999.90;;;13.90;99.90;;;;;;5013056;28;20034;-74
2023/03/11 00:38:16;;;;;;;1999.90;999.90;;;13.80;99.90;;;;;;5013259;28;20413;-77
2023/03/11 00:40:44;;;;;;;1999.90;999.90;;;13.80;99.90;;;;;;5025601;28;20028;-78
2023/03/11 00:43:09;;;;;;;1999.90;999.90;;;13.80;99.90;;;;;;5032741;28;20481;-74
2023/03/11 00:45:35;;;;;;;1999.90;999.90;;;13.80;99.90;;;;;;5027281;28;20068;-77
2023/03/11 00:48:01;;;;;;;1999.90;999.90;;;13.80;99.90;;;;;;5012757;28;20484;-79
2023/03/11 00:50:32;;;;;;;1999.90;999.90;;;13.80;99.90;;;;;;5013013;28;20040;-77
2023/03/11 00:52:59;;;;;;;1999.90;999.90;;;13.80;99.90;;;;;;5012259;28;20551;-77
2023/03/11 00:55:27;;;;;;;1999.90;999.90;;;13.80;99.90;;;;;;5012959;28;20030;-77
2023/03/11 00:57:55;;;;;;;1999.90;999.90;;;13.80;99.90;;;;;;5013046;28;20022;-78
2023/03/11 01:00:22;;;;;;;1999.90;999.90;;;13.70;99.90;;;;;;5012690;28;20101;-76
2023/03/11 01:02:48;;;;;;;1999.90;999.90;;;13.70;99.90;;;;;;5012972;28;20022;-73
2023/03/11 01:05:14;;;;;;;1999.90;999.90;;;13.70;99.90;;;;;;5013114;28;20026;-77
2023/03/11 01:07:39;;;;;;;1999.90;999.90;;;13.70;99.90;;;;;;5013047;28;20032;-72
2023/03/11 01:10:07;;;;;;;1999.90;999.90;;;13.70;99.90;;;;;;5012813;28;20445;-76
2023/03/11 01:12:32;;;;;;;1999.90;999.90;;;13.70;99.90;;;;;;5012568;28;20515;-77
2023/03/11 01:14:58;;;;;;;1999.90;999.90;;;13.70;99.90;;;;;;5007784;28;20030;-76
2023/03/11 01:17:24;;;;;;;1999.90;999.90;;;13.80;99.90;;;;;;5012287;28;20045;-76
2023/03/11 01:19:50;;;;;;;1999.90;999.90;;;13.70;99.90;;;;;;5013082;28;20030;-75
2023/03/11 01:22:15;;;;;;;1999.90;999.90;;;13.80;99.90;;;;;;5012963;28;20033;-75
2023/03/11 01:24:41;;;;;;;1999.90;999.90;;;13.70;99.90;;;;;;5012666;28;20103;-75
2023/03/11 01:27:07;;;;;;;1999.90;999.90;;;13.70;99.90;;;;;;5012640;28;20080;-75
2023/03/11 01:29:32;;;;;;;1999.90;999.90;;;13.70;99.90;;;;;;5012496;28;20030;-73
2023/03/11 01:31:58;;;;;;;1999.90;999.90;;;13.70;99.90;;;;;;5013026;28;20033;-73
2023/03/11 01:34:24;;;;;;;1999.90;999.90;;;13.70;99.90;;;;;;5013041;28;20030;-76
2023/03/11 01:36:49;;;;;;;1999.90;999.90;;;13.70;99.90;;;;;;5012394;28;20116;-75
2023/03/11 01:39:15;;;;;;;1999.90;999.90;;;13.70;99.90;;;;;;5011866;28;20084;-72
2023/03/11 01:41:41;;;;;;;1999.90;999.90;;;13.70;99.90;;;;;;5032663;28;20033;-76
2023/03/11 01:44:06;;;;;;;1999.90;999.90;;;13.70;99.90;;;;;;5032603;28;20439;-75
2023/03/11 01:46:50;;;;;;;1999.90;999.90;;;13.70;99.90;;;;;;5019444;28;20053;-76
2023/03/11 01:49:17;;;;;;;1999.90;999.90;;;13.70;99.90;;;;;;5012504;28;20054;-76
2023/03/11 01:51:46;;;;;;;1999.90;999.90;;;13.70;99.90;;;;;;5012306;28;20084;-74
2023/03/11 01:54:18;;;;;;;1999.90;999.90;;;13.70;99.90;;;;;;5011785;28;20026;-74
2023/03/11 01:56:45;;;;;;;1999.90;999.90;;;13.70;99.90;;;;;;5012957;28;20450;-76
2023/03/11 01:59:14;;;;;;;1999.90;999.90;;;13.70;99.90;;;;;;5015997;28;20026;-74
2023/03/11 02:01:52;;;;;;;1999.90;999.90;;;13.70;99.90;;;;;;5014403;28;20148;-75
2023/03/11 02:04:19;;;;;;;1999.90;999.90;;;13.60;99.90;;;;;;5016219;28;20097;-76
2023/03/11 02:06:45;;;;;;;1999.90;999.90;;;13.70;99.90;;;;;;5015823;28;20037;-75
2023/03/11 02:09:10;;;;;;;1999.90;999.90;;;13.60;99.90;;;;;;5015909;28;20401;-75
2023/03/11 02:11:36;;;;;;;1999.90;999.90;;;13.60;99.90;;;;;;5015683;28;20021;-74
2023/03/11 02:14:05;;;;;;;1999.90;999.90;;;13.60;99.90;;;;;;5015432;28;20029;-75
2023/03/11 02:16:31;;;;;;;1999.90;999.90;;;13.60;99.90;;;;;;5009222;28;20447;-75
2023/03/11 02:19:01;;;;;;;1999.90;999.90;;;13.60;99.90;;;;;;5015587;28;20029;-74
2023/03/11 02:21:30;;;;;;;1999.90;999.90;;;13.60;99.90;;;;;;5015591;28;20389;-75
2023/03/11 02:24:16;;;;;;;1999.90;999.90;;;13.60;99.90;;;;;;5015645;28;20022;-74
2023/03/11 02:26:55;;;;;;;1999.90;999.90;;;13.60;99.90;;;;;;5015311;28;20022;-75
2023/03/11 02:29:21;;;;;;;1999.90;999.90;;;13.60;99.90;;;;;;5015182;28;20097;-76
2023/03/11 02:31:48;;;;;;;1999.90;999.90;;;13.60;99.90;;;;;;5015482;28;20489;-75
2023/03/11 02:34:25;;;;;;;1999.90;999.90;;;13.60;99.90;;;;;;5015681;28;20024;-73
2023/03/11 02:36:51;;;;;;;1999.90;999.90;;;13.60;99.90;;;;;;5015269;28;20045;-76
2023/03/11 02:39:29;;;;;;;1999.90;999.90;;;13.60;99.90;;;;;;5015716;28;20558;-76
2023/03/11 02:41:54;;;;;;;1999.90;999.90;;;13.60;99.90;;;;;;5034853;28;20025;-77
2023/03/11 02:44:20;;;;;;;1999.90;999.90;;;13.60;99.90;;;;;;5034931;28;20048;-75
2023/03/11 02:46:46;;;;;;;1999.90;999.90;;;13.60;99.90;;;;;;5020260;28;20043;-74
2023/03/11 02:49:14;;;;;;;1999.90;999.90;;;13.60;99.90;;;;;;5015061;28;20073;-76
2023/03/11 02:51:39;;;;;;;1999.90;999.90;;;13.70;99.90;;;;;;5014627;28;20034;-75
2023/03/11 02:54:05;;;;;;;1999.90;999.90;;;13.60;99.90;;;;;;5014656;28;20022;-76
2023/03/11 02:56:31;;;;;;;1999.90;999.90;;;13.70;99.90;;;;;;5014532;28;20393;-76
2023/03/11 02:58:57;;;;;;;1999.90;999.90;;;13.70;99.90;;;;;;5014651;28;20068;-75
2023/03/11 03:01:23;;;;;;;1999.90;999.90;;;13.60;99.90;;;;;;5014912;28;20450;-75
2023/03/11 03:03:48;;;;;;;1999.90;999.90;;;13.60;99.90;;;;;;5013975;28;20030;-75
2023/03/11 03:06:14;;;;;;;1999.90;999.90;;;13.70;99.90;;;;;;5014828;28;20030;-76
2023/03/11 03:08:40;;;;;;;1999.90;999.90;;;13.60;99.90;;;;;;5014717;28;20440;-76
2023/03/11 03:11:06;;;;;;;1999.90;999.90;;;13.60;99.90;;;;;;5014484;28;20032;-74
2023/03/11 03:13:31;;;;;;;1999.90;999.90;;;13.60;99.90;;;;;;5014562;28;20026;-76
2023/03/11 03:15:58;;;;;;;1999.90;999.90;;;13.60;99.90;;;;;;5009700;28;20488;-75
2023/03/11 03:18:24;;;;;;;1999.90;999.90;;;13.60;99.90;;;;;;5014589;28;20156;-75
2023/03/11 03:20:50;;;;;;;1999.90;999.90;;;13.60;99.90;;;;;;5046334;28;20104;-75
2023/03/11 03:23:16;;;;;;;1999.90;999.90;;;13.60;99.90;;;;;;5014490;28;20489;-74
2023/03/11 03:25:43;;;;;;;1999.90;999.90;;;13.60;99.90;;;;;;5014262;28;20022;-75
2023/03/11 03:28:10;;;;;;;1999.90;999.90;;;13.60;99.90;;;;;;5014178;28;20057;-75
2023/03/11 03:30:36;;;;;;;1999.90;999.90;;;13.60;99.90;;;;;;5014242;28;20496;-75
2023/03/11 03:33:02;;;;;;;1999.90;999.90;;;13.60;99.90;;;;;;5014138;28;20014;-74
2023/03/11 03:35:27;;;;;;;1999.90;999.90;;;13.60;99.90;;;;;;5014438;28;20070;-75
2023/03/11 03:37:54;;;;;;;1999.90;999.90;;;13.60;99.90;;;;;;5013964;28;20033;-75
2023/03/11 03:40:20;;;;;;;1999.90;999.90;;;13.60;99.90;;;;;;5023335;28;20388;-74
2023/03/11 03:42:45;;;;;;;1999.90;999.90;;;13.60;99.90;;;;;;5033590;28;20144;-76
2023/03/11 03:45:11;;;;;;;1999.90;999.90;;;13.60;99.90;;;;;;5063840;28;20471;-74
2023/03/11 03:47:37;;;;;;;1999.90;999.90;;;13.60;99.90;;;;;;5013800;28;20056;-74
2023/03/11 03:50:04;;;;;;;1999.90;999.90;;;13.60;99.90;;;;;;5014132;28;20405;-74
2023/03/11 03:52:30;;;;;;;1999.90;999.90;;;13.60;99.90;;;;;;5013696;28;20077;-74
2023/03/11 03:54:56;;;;;;;1999.90;999.90;;;13.60;99.90;;;;;;5011842;28;20495;-74
2023/03/11 03:57:21;;;;;;;1999.90;999.90;;;13.50;99.90;;;;;;5013636;28;20508;-75
2023/03/11 03:59:47;;;;;;;1999.90;999.90;;;13.50;99.90;;;;;;5014040;28;20080;-75
2023/03/11 04:02:12;;;;;;;1999.90;999.90;;;13.50;99.90;;;;;;5013802;28;20029;-75
2023/03/11 04:04:38;;;;;;;1999.90;999.90;;;13.50;99.90;;;;;;5013700;28;20057;-75
2023/03/11 04:07:05;;;;;;;1999.90;999.90;;;13.50;99.90;;;;;;5013440;28;20033;-75
2023/03/11 04:09:31;;;;;;;1999.90;999.90;;;13.50;99.90;;;;;;5013632;28;20101;-76
2023/03/11 04:11:58;;;;;;;1999.90;999.90;;;13.50;99.90;;;;;;5013670;28;20060;-75
2023/03/11 04:14:24;;;;;;;1999.90;999.90;;;13.50;99.90;;;;;;5010569;28;20583;-76
2023/03/11 04:16:50;;;;;;;1999.90;999.90;;;13.50;99.90;;;;;;5011237;28;20026;-76
2023/03/11 04:19:16;;;;;;;1999.90;999.90;;;13.50;99.90;;;;;;5012729;28;20496;-75
2023/03/11 04:21:41;;;;;;;1999.90;999.90;;;13.60;99.90;;;;;;5013334;28;20080;-75
2023/03/11 04:24:07;;;;;;;1999.90;999.90;;;13.60;99.90;;;;;;5013554;28;20101;-74
2023/03/11 04:26:33;;;;;;;1999.90;999.90;;;13.60;99.90;;;;;;5013505;28;20397;-75
2023/03/11 04:28:59;;;;;;;1999.90;999.90;;;13.60;99.90;;;;;;5013098;28;20021;-76
2023/03/11 04:31:25;;;;;;;1999.90;999.90;;;13.60;99.90;;;;;;5013098;28;20033;-76
2023/03/11 04:33:50;;;;;;;1999.90;999.90;;;13.60;99.90;;;;;;5013291;28;20052;-76
2023/03/11 04:36:16;;;;;;;1999.90;999.90;;;13.60;99.90;;;;;;5013421;28;20026;-76
2023/03/11 04:38:41;;;;;;;1999.90;999.90;;;13.60;99.90;;;;;;5012723;28;20065;-75
2023/03/11 04:41:07;;;;;;;1999.90;999.90;;;13.60;99.90;;;;;;5028454;28;20053;-76
2023/03/11 04:43:33;;;;;;;1999.90;999.90;;;13.60;99.90;;;;;;5032655;28;20033;-76
2023/03/11 04:45:59;;;;;;;1999.90;999.90;;;13.60;99.90;;;;;;5024882;28;20022;-77
2023/03/11 04:48:26;;;;;;;1999.90;999.90;;;13.60;99.90;;;;;;5012853;28;20165;-74
2023/03/11 04:50:51;;;;;;;1999.90;999.90;;;13.60;99.90;;;;;;5013020;28;20072;-74
2023/03/11 04:53:17;;;;;;;1999.90;999.90;;;13.60;99.90;;;;;;5013188;28;20034;-75
2023/03/11 04:55:43;;;;;;;1999.90;999.90;;;13.60;99.90;;;;;;5012187;28;20040;-75
2023/03/11 04:58:08;;;;;;;1999.90;999.90;;;13.60;99.90;;;;;;5012990;28;20036;-77
2023/03/11 05:00:34;;;;;;;1999.90;999.90;;;13.60;99.90;;;;;;5013119;28;20049;-75
2023/03/11 05:03:00;;;;;;;1999.90;999.90;;;13.60;99.90;;;;;;5013142;28;20018;-76
2023/03/11 05:05:25;;;;;;;1999.90;999.90;;;13.50;99.90;;;;;;5013117;28;20105;-77
2023/03/11 05:07:51;;;;;;;1999.90;999.90;;;13.60;99.90;;;;;;5012660;28;20026;-77
2023/03/11 05:10:21;;;;;;;1999.90;999.90;;;13.50;99.90;;;;;;5011470;28;20443;-76
2023/03/11 05:12:50;;;;;;;1999.90;999.90;;;13.50;99.90;;;;;;5013017;28;20566;-77
2023/03/11 05:15:16;;;;;;;1999.90;999.90;;;13.50;99.90;;;;;;5008009;28;20030;-77
2023/03/11 05:17:42;;;;;;;1999.90;999.90;;;13.50;99.90;;;;;;5012850;28;20136;-75
2023/03/11 05:20:09;;;;;;;1999.90;999.90;;;13.60;99.90;;;;;;5012718;28;20046;-76
2023/03/11 05:22:34;;;;;;;1999.90;999.90;;;13.60;99.90;;;;;;5013088;28;20109;-76
2023/03/11 05:25:00;;;;;;;1999.90;999.90;;;13.50;99.90;;;;;;5012709;28;20543;-73
2023/03/11 05:27:26;;;;;;;1999.90;999.90;;;13.50;99.90;;;;;;5012593;28;20374;-76
2023/03/11 05:29:51;;;;;;;1999.90;999.90;;;13.50;99.90;;;;;;5012822;28;20077;-76
2023/03/11 05:32:18;;;;;;;1999.90;999.90;;;13.50;99.90;;;;;;5014202;28;20117;-75
2023/03/11 05:34:44;;;;;;;1999.90;999.90;;;13.50;99.90;;;;;;5016761;28;20109;-76
2023/03/11 05:37:10;;;;;;;1999.90;999.90;;;13.50;99.90;;;;;;5016262;28;20401;-76
2023/03/11 05:39:36;;;;;;;1999.90;999.90;;;13.50;99.90;;;;;;5019240;28;20136;-76
2023/03/11 05:42:03;;;;;;;1999.90;999.90;;;13.50;99.90;;;;;;5036206;28;20461;-76
2023/03/11 05:44:29;;;;;;;1999.90;999.90;;;13.50;99.90;;;;;;5036064;28;20018;-76
2023/03/11 05:46:55;;;;;;;1999.90;999.90;;;13.50;99.90;;;;;;5019968;28;20046;-77
2023/03/11 05:49:20;;;;;;;1999.90;999.90;;;13.50;99.90;;;;;;5016187;28;20022;-76
2023/03/11 05:51:46;;;;;;;1999.90;999.90;;;13.50;99.90;;;;;;5016291;28;20044;-78
2023/03/11 05:54:13;;;;;;;1999.90;999.90;;;13.50;99.90;;;;;;5016198;28;20026;-76
2023/03/11 05:56:43;;;;;;;1999.90;999.90;;;13.50;99.90;;;;;;5015404;28;20101;-78
2023/03/11 05:59:09;;;;;;;1999.90;999.90;;;13.50;99.90;;;;;;5015933;28;20113;-78
2023/03/11 06:01:35;;;;;;;1999.90;999.90;;;13.50;99.90;;;;;;5016113;28;20097;-78
2023/03/11 06:04:01;;;;;;;1999.90;999.90;;;13.50;99.90;;;;;;5016082;28;20026;-77
2023/03/11 06:06:27;;;;;;;1999.90;999.90;;;13.50;99.90;;;;;;5015961;28;20108;-76
2023/03/11 06:08:53;;;;;;;1999.90;999.90;;;13.50;99.90;;;;;;5015629;28;20528;-77
2023/03/11 06:11:19;;;;;;;1999.90;999.90;;;13.50;99.90;;;;;;5015772;28;20022;-76
2023/03/11 06:13:44;;;;;;;1999.90;999.90;;;13.50;99.90;;;;;;5015777;28;20497;-78
2023/03/11 06:16:10;;;;;;;1999.90;999.90;;;13.60;99.90;;;;;;5010749;28;20026;-77
2023/03/11 06:18:36;;;;;;;1999.90;999.90;;;13.50;99.90;;;;;;5015592;28;20448;-75
2023/03/11 06:21:03;;;;;;;1999.90;999.90;;;13.60;99.90;;;;;;5015492;28;20421;-77
2023/03/11 06:23:29;;;;;;;1999.90;999.90;;;13.60;99.90;;;;;;5015695;28;20432;-78
2023/03/11 06:26:03;;;;;;;1999.90;999.90;;;13.50;99.90;;;;;;5014317;28;20034;-77
2023/03/11 06:28:30;;;;;;;1999.90;999.90;;;13.60;99.90;;;;;;5015628;28;20059;-77
2023/03/11 06:30:57;;;;;;;1999.90;999.90;;;13.60;99.90;;;;;;5015282;28;20520;-78
2023/03/11 06:33:23;;;;;;;1999.90;999.90;;;13.60;99.90;;;;;;5015189;28;20059;-77
2023/03/11 06:35:56;;;;;;;1999.90;999.90;;;13.60;99.90;;;;;;5009019;28;20018;-76
2023/03/11 06:38:22;;;;;;;1999.90;999.90;;;13.60;99.90;;;;;;5010743;28;20485;-77
2023/03/11 06:40:48;;;;;;;1999.90;999.90;;;13.60;99.90;;;;;;5021815;28;20036;-75
2023/03/11 06:43:13;;;;;;;1999.90;999.90;;;13.60;99.90;;;;;;5034661;28;20026;-77
2023/03/11 06:45:39;;;;;;;1999.90;999.90;;;13.60;99.90;;;;;;5027874;28;20072;-77
2023/03/11 06:48:05;;;;;;;1999.90;999.90;;;13.60;99.90;;;;;;5014923;28;20088;-76
2023/03/11 06:50:30;;;;;;;1999.90;999.90;;;13.60;99.90;;;;;;5015202;28;20501;-75
2023/03/11 06:52:56;;;;;;;1999.90;999.90;;;13.60;99.90;;;;;;5015102;28;20030;-76
2023/03/11 06:55:22;;;;;;;1999.90;999.90;;;13.60;99.90;;;;;;5014894;28;20025;-76
2023/03/11 06:57:48;;;;;;;1999.90;999.90;;;13.60;99.90;;;;;;5014097;28;20028;-76
2023/03/11 07:00:15;;;;;;;1999.90;999.90;;;13.60;99.90;;;;;;5014787;28;20026;-76
2023/03/11 07:02:41;;;;;;;1999.90;999.90;;;13.60;99.90;;;;;;5014975;28;20072;-76
2023/03/11 07:05:07;;;;;;;1999.90;999.90;;;13.60;99.90;;;;;;5014725;28;20018;-77
2023/03/11 07:07:32;;;;;;;1999.90;999.90;;;13.60;99.90;;;;;;5014476;28;20061;-76
2023/03/11 07:09:58;;;;;;;1999.90;999.90;;;13.60;99.90;;;;;;5014644;28;20022;-76
2023/03/11 07:12:24;;;;;;;1999.90;999.90;;;13.50;99.90;;;;;;5014591;28;20030;-77
2023/03/11 07:14:59;;;;;;;1999.90;999.90;;;13.50;99.90;;;;;;5009621;28;20025;-76
2023/03/11 07:17:25;;;;;;;1999.90;999.90;;;13.50;99.90;;;;;;5013745;28;20029;-76
2023/03/11 07:19:51;;;;;;;1999.90;999.90;;;13.50;99.90;;;;;;5014486;28;20029;-76
2023/03/11 07:22:17;;;;;;;1999.90;999.90;;;13.50;99.90;;;;;;5014674;28;20021;-76
2023/03/11 07:24:47;;;;;;;1999.90;999.90;;;13.50;99.90;;;;;;5014376;28;20030;-76
2023/03/11 07:27:13;;;;;;;1999.90;999.90;;;13.50;99.90;;;;;;5014296;28;20443;-76
2023/03/11 07:29:39;;;;;;;1999.90;999.90;;;13.50;99.90;;;;;;5014199;28;20030;-76
2023/03/11 07:32:07;;;;;;;1999.90;999.90;;;13.40;99.90;;;;;;5014260;28;20547;-76
2023/03/11 07:34:32;;;;;;;1999.90;999.90;;;13.40;99.90;;;;;;5014238;28;20025;-77
2023/03/11 07:36:58;;;;;;;1999.90;999.90;;;13.50;99.90;;;;;;5013992;28;20033;-76
2023/03/11 07:39:24;;;;;;;1999.90;999.90;;;13.50;99.90;;;;;;5015372;28;20541;-76
2023/03/11 07:41:50;;;;;;;1999.90;999.90;;;13.50;99.90;;;;;;5033811;28;20017;-76
2023/03/11 07:44:16;;;;;;;1999.90;999.90;;;13.50;99.90;;;;;;5033743;28;20057;-76
2023/03/11 07:46:43;;;;;;;1999.90;999.90;;;13.50;99.90;;;;;;5019733;28;20103;-76
2023/03/11 07:49:08;;;;;;;1999.90;999.90;;;13.50;99.90;;;;;;5013935;28;20029;-76
2023/03/11 07:51:36;;;;;;;1999.90;999.90;;;13.50;99.90;;;;;;5013867;28;20034;-76
2023/03/11 07:54:02;;;;;;;1999.90;999.90;;;13.50;99.90;;;;;;5013410;28;20029;-76
2023/03/11 07:56:31;;;;;;;1999.90;999.90;;;13.50;99.90;;;;;;5013330;28;20048;-76
2023/03/11 07:58:58;;;;;;;1999.90;999.90;;;13.50;99.90;;;;;;5013055;28;20536;-76
2023/03/11 08:01:26;;;;;;;1999.90;999.90;;;13.50;99.90;;;;;;5013626;28;20412;-76
2023/03/11 08:03:57;;;;;;;1999.90;999.90;;;13.40;99.90;;;;;;5014053;28;20165;-76
2023/03/11 08:06:31;;;;;;;1999.90;999.90;;;13.50;99.90;;;;;;5013481;28;20040;-76
2023/03/11 08:08:58;;;;;;;1999.90;999.90;;;13.50;99.90;;;;;;5012386;28;20037;-76
2023/03/11 08:11:24;;;;;;;1999.90;999.90;;;13.50;99.90;;;;;;5013455;28;20157;-76
2023/03/11 08:13:50;;;;;;;1999.90;999.90;;;13.60;99.90;;;;;;5013523;28;20543;-76
2023/03/11 08:16:19;;;;;;;1999.90;999.90;;;13.60;99.90;;;;;;5008610;28;20450;-76
2023/03/11 08:18:46;;;;;;;1999.90;999.90;;;13.60;99.90;;;;;;5012853;28;20029;-76
2023/03/11 08:21:15;;;;;;;1999.90;999.90;;;13.60;99.90;;;;;;5013573;28;20045;-76
2023/03/11 08:23:42;;;;;;;1999.90;999.90;;;13.60;99.90;;;;;;5013533;28;20034;-76
2023/03/11 08:26:12;;;;;;;1999.90;999.90;;;13.60;99.90;;;;;;5013386;28;20017;-76
2023/03/11 08:28:37;;;;;;;1999.90;999.90;;;13.60;99.90;;;;;;5013153;28;20057;-76
2023/03/11 08:31:12;;;;;;;1999.90;999.90;;;13.60;99.90;;;;;;5013262;28;20060;-76
2023/03/11 08:33:37;;;;;;;1999.90;999.90;;;13.60;99.90;;;;;;5013187;28;20033;-76
2023/03/11 08:36:03;;;;;;;1999.90;999.90;;;13.60;99.90;;;;;;5013527;28;20030;-77
2023/03/11 08:38:29;;;;;;;1999.90;999.90;;;13.60;99.90;;;;;;5013084;28;20026;-77
2023/03/11 08:40:54;;;;;;;1999.90;999.90;;;13.60;99.90;;;;;;5026837;28;20375;-77
2023/03/11 08:43:20;;;;;;;1999.90;999.90;;;13.60;99.90;;;;;;5032759;28;20103;-76
2023/03/11 08:45:45;;;;;;;1999.90;999.90;;;13.60;99.90;;;;;;5026358;28;20033;-77
2023/03/11 08:48:11;;;;;;;1999.90;999.90;;;13.60;99.90;;;;;;5013094;28;20141;-76
2023/03/11 08:50:40;;;;;;;1999.90;999.90;;;13.60;99.90;;;;;;5012854;28;20029;-77
2023/03/11 08:53:05;;;;;;;1999.90;999.90;;;13.70;99.90;;;;;;5013277;28;20022;-76
2023/03/11 08:55:31;;;;;;;1999.90;999.90;;;13.70;99.90;;;;;;5013091;28;20393;-76
2023/03/11 08:57:57;;;;;;;1999.90;999.90;;;13.80;99.90;;;;;;5012184;28;20041;-76
2023/03/11 09:00:22;;;;;;;1999.90;999.90;;;13.80;99.90;;;;;;5012904;28;20377;-76
2023/03/11 09:02:48;;;;;;;1999.90;999.90;;;13.80;99.90;;;;;;5013057;28;20030;-78
2023/03/11 09:05:14;;;;;;;1999.90;999.90;;;13.80;99.90;;;;;;5013156;28;20037;-76
2023/03/11 09:07:39;;;;;;;1999.90;999.90;;;13.80;99.90;;;;;;5016757;28;20109;-76
2023/03/11 09:10:06;;;;;;;1999.90;999.90;;;13.80;99.90;;;;;;5016866;28;20022;-77
2023/03/11 09:12:32;;;;;;;1999.90;999.90;;;13.90;99.90;;;;;;5017043;28;20029;-76
2023/03/11 09:14:58;;;;;;;1999.90;999.90;;;13.80;99.90;;;;;;5011846;28;20076;-76
2023/03/11 09:17:24;;;;;;;1999.90;999.90;;;13.80;99.90;;;;;;5016459;28;20030;-76
2023/03/11 09:19:49;;;;;;;1999.90;999.90;;;13.80;99.90;;;;;;5016916;28;20060;-76
2023/03/11 09:22:15;;;;;;;1999.90;999.90;;;13.80;99.90;;;;;;5016721;28;20037;-76
2023/03/11 09:24:41;;;;;;;1999.90;999.90;;;13.80;99.90;;;;;;5016603;28;20029;-76
2023/03/11 09:27:06;;;;;;;1999.90;999.90;;;13.80;99.90;;;;;;5016446;28;20026;-77
2023/03/11 09:29:32;;;;;;;1999.90;999.90;;;13.80;99.90;;;;;;5016539;28;20148;-76
2023/03/11 09:31:58;;;;;;;1999.90;999.90;;;13.80;99.90;;;;;;5016610;28;20100;-76
2023/03/11 09:34:23;;;;;;;1999.90;999.90;;;13.80;99.90;;;;;;5048241;28;20026;-76
2023/03/11 09:36:49;;;;;;;1999.90;999.90;;;13.90;99.90;;;;;;5016242;28;20026;-77
2023/03/11 09:39:15;;;;;;;1999.90;999.90;;;13.90;99.90;;;;;;5016633;28;20041;-75
2023/03/11 09:42:00;;;;;;;1999.90;999.90;;;13.90;99.90;;;;;;5035749;28;20100;-76
2023/03/11 09:44:36;;;;;;;1999.90;999.90;;;13.90;99.90;;;;;;5036300;28;20022;-76
2023/03/11 09:47:36;;;;;;;1999.90;999.90;;;14.00;99.90;;;;;;5019264;28;20037;-76
2023/03/11 09:50:05;;;;;;;1999.90;999.90;;;14.00;99.90;;;;;;5014709;28;20030;-76
2023/03/11 09:52:43;;;;;;;1999.90;999.90;;;14.10;99.90;;;;;;5016000;28;20548;-76
2023/03/11 09:55:31;;;;;;;1999.90;999.90;;;14.20;99.90;;;;;;5016114;28;20491;-76
2023/03/11 09:58:00;;;;;;;1999.90;999.90;;;14.30;99.90;;;;;;5015442;28;20428;-76
2023/03/11 10:00:26;;;;;;;1999.90;999.90;;;14.30;99.90;;;;;;5015290;28;20014;-76
2023/03/11 10:02:52;;;;;;;1999.90;999.90;;;14.10;99.90;;;;;;5015744;28;20105;-76
2023/03/11 10:05:25;;;;;;;1999.90;999.90;;;14.20;99.90;;;;;;5015817;28;20430;-76
2023/03/11 10:07:58;;;;;;;;;;;14.20;99.90;;;;;;5016223;28;20034;-76
2023/03/11 10:10:27;;;;;;;1999.90;999.90;;;14.20;99.90;;;;;;5016105;28;19912;-77
2023/03/11 10:13:13;;;;;;;1999.90;999.90;;;14.20;99.90;;;;;;5015721;28;20081;-78
2023/03/11 10:16:05;;;;;;;1999.90;999.90;;;14.10;99.90;;;;;;5010766;28;20172;-75
2023/03/11 10:18:43;;;;;;;1999.90;999.90;;;14.00;99.90;;;;;;5014112;28;20033;-76
2023/03/11 10:21:38;;;;;;;1999.90;999.90;;;14.00;99.90;;;;;;5047268;28;20022;-76
2023/03/11 10:24:26;;;;;;;1999.90;999.90;;;13.90;99.90;;;;;;5015645;28;20022;-77
2023/03/11 10:26:58;;;;;;;1999.90;999.90;;;14.00;99.90;;;;;;5016397;28;20060;-77
2023/03/11 10:29:59;;;;;;;1999.90;999.90;;;14.00;99.90;;;;;;5015205;28;20022;-76
2023/03/11 10:32:49;;;;;;;1999.90;999.90;;;14.00;99.90;;;;;;5046937;28;20042;-77
2023/03/11 10:35:15;;;;;;;1999.90;999.90;;;13.90;99.90;;;;;;5015471;28;20093;-78
2023/03/11 10:38:02;;;;;;;1999.90;999.90;;;13.90;99.90;;;;;;5046391;28;20497;-76
2023/03/11 10:40:38;;;;;;;1999.90;999.90;;;13.90;99.90;;;;;;5025319;28;20025;-77
2023/03/11 10:43:21;;;;;;;1999.90;999.90;;;14.00;99.90;;;;;;5034850;28;20044;-77
2023/03/11 10:45:49;;;;;;;1999.90;999.90;;;13.90;99.90;;;;;;5028105;28;20026;-76
2023/03/11 10:48:17;;;;;;;1999.90;999.90;;;13.90;99.90;;;;;;5015034;28;20058;-76
2023/03/11 10:50:58;;;;;;;1999.90;999.90;;;13.80;99.90;;;;;;5015027;28;20440;-78
2023/03/11 10:53:24;;;;;;;1999.90;999.90;;;13.80;99.90;;;;;;5014735;28;20026;-76
2023/03/11 10:55:52;;;;;;;1999.90;999.90;;;13.80;99.90;;;;;;5014907;28;20093;-76
2023/03/11 10:58:22;;;;;;;1999.90;999.90;;;13.80;99.90;;;;;;5014516;28;20032;-76
2023/03/11 11:01:15;;;;;;;1999.90;999.90;;;13.70;99.90;;;;;;5014335;28;20029;-77
2023/03/11 11:03:43;;;;;;;1999.90;999.90;;;13.60;99.90;;;;;;5014194;28;20037;-76
2023/03/11 11:06:22;;;;;;;1999.90;999.90;;;13.50;99.90;;;;;;5014686;28;20065;-76
2023/03/11 11:08:48;;;;;;;1999.90;999.90;;;13.50;99.90;;;;;;5014498;28;20033;-76
2023/03/11 11:11:22;;;;;;;1999.90;999.90;;;13.70;99.90;;;;;;5014666;28;20401;-77
2023/03/11 11:13:59;;;;;;;1999.90;999.90;;;13.70;99.90;;;;;;5014328;28;20054;-76
2023/03/11 11:16:26;;;;;;;1999.90;999.90;;;13.80;99.90;;;;;;5009374;28;20037;-77
2023/03/11 11:19:11;;;;;;;1999.90;999.90;;;13.90;99.90;;;;;;5014243;28;20022;-76
2023/03/11 11:21:47;;;;;;;1999.90;999.90;;;14.00;99.90;;;;;;5014382;28;20029;-76
2023/03/11 11:24:21;;;;;;;1999.90;999.90;;;13.90;99.90;;;;;;5014383;28;20108;-78
2023/03/11 11:27:13;;;;;;;1999.90;999.90;;;13.90;99.90;;;;;;5014426;28;20022;-79
2023/03/11 11:29:39;;;;;;;1999.90;999.90;;;14.10;99.90;;;;;;5012915;28;20022;-79
2023/03/11 11:32:17;;;;;;;1999.90;999.90;;;14.40;99.90;;;;;;5014107;28;20034;-77
2023/03/11 11:35:05;;;;;;;1999.90;999.90;;;14.80;99.90;;;;;;5014535;28;20091;-77
2023/03/11 11:37:34;;;;;;;1999.90;999.90;;;14.60;99.90;;;;;;5013987;28;20022;-77
2023/03/11 11:40:22;;;;;;;1999.90;999.90;;;14.50;99.90;;;;;;5020272;28;20427;-77
2023/03/11 11:42:50;;;;;;;1999.90;999.90;;;14.50;99.90;;;;;;5033611;28;20120;-78
2023/03/11 11:45:38;;;;;;;1999.90;999.90;;;14.40;99.90;;;;;;5031330;28;20072;-77
2023/03/11 11:48:34;;;;;;;1999.90;999.90;;;14.30;99.90;;;;;;5012572;28;20057;-77
2023/03/11 11:51:02;;;;;;;1999.90;999.90;;;14.20;99.90;;;;;;5013689;28;20493;-77
2023/03/11 11:53:51;;;;;;;1999.90;999.90;;;14.10;99.90;;;;;;5013708;28;20037;-79
2023/03/11 11:56:17;;;;;;;1999.90;999.90;;;14.20;99.90;;;;;;5013896;28;20057;-79
2023/03/11 11:58:42;;;;;;;1999.90;999.90;;;14.20;99.90;;;;;;5013283;28;20053;-76
2023/03/11 12:01:19;;;;;;;1999.90;999.90;;;14.20;99.90;;;;;;5011633;28;20030;-76
2023/03/11 12:03:56;;;;;;;1999.90;999.90;;;14.10;99.90;;;;;;5012471;28;20030;-77
2023/03/11 12:06:49;;;;;;;1999.90;999.90;;;14.10;99.90;;;;;;5013731;28;20033;-77